METAR Data
IDs: Format: Raw Decoded Include TAF

Data at: 0820 UTC 23 Sep 2018

KHQI 230815Z AUTO 15012KT 10SM SCT018 SCT023 29/25 A2990 RMK A01
KHQI 230755Z AUTO 15012KT 10SM FEW016 28/25 A2990 RMK A01
KHQI 230735Z AUTO 16008G14KT 140V230 10SM CLR 28/25 A2990 RMK A01
KHQI 230715Z AUTO 14011G16KT 10SM CLR 28/25 A2991 RMK A01
KHQI 230655Z AUTO 14009G15KT 100V160 10SM CLR 28/24 A2991 RMK A01
KHQI 230635Z AUTO 14009G15KT 10SM CLR 28/24 A2992 RMK A01
KHQI 230615Z AUTO 12009KT 10SM CLR 28/25 A2992 RMK A01
KHQI 230555Z AUTO 13012KT 10SM FEW021 FEW034 28/23 A2993 RMK A01
KHQI 230535Z AUTO 13010G17KT 100V180 10SM SCT019 BKN034 28/25 A2993 RMK A01
KHQI 230515Z AUTO 13007G15KT 110V170 10SM FEW017 28/25 A2993 RMK A01
KHQI 230455Z AUTO 12012KT 10SM CLR 28/25 A2994 RMK A01
KHQI 230435Z AUTO 12010KT 10SM CLR 28/25 A2994 RMK A01
KHQI 230415Z AUTO 12011KT 10SM CLR 29/22 A2994 RMK A01
KHQI 230355Z AUTO 11012KT 10SM CLR 28/24 A2994 RMK A01
KHQI 230335Z AUTO 11014KT 10SM CLR 28/24 A2994 RMK A01
KHQI 230315Z AUTO 11015KT 10SM CLR 27/23 A2994 RMK A01
KHQI 230255Z AUTO 11014KT 10SM CLR 27/23 A2994 RMK A01
KHQI 230235Z AUTO 11015KT 10SM FEW022 27/24 A2995 RMK A01
KHQI 230215Z AUTO 10014KT 10SM FEW022 FEW038 28/24 A2994 RMK A01
KHQI 230155Z AUTO 12007KT 9SM CLR 28/25 A2993 RMK A01
KHQI 230135Z AUTO 11011KT 10SM SCT025 28/24 A2993 RMK A01
KHQI 230115Z AUTO 11007KT 10SM FEW021 FEW031 28/23 A2992 RMK A01
KHQI 230055Z AUTO 07003KT 10SM FEW031 28/23 A2992 RMK A01
KHQI 230035Z AUTO 12006KT 9SM FEW023 SCT032 SCT039 28/24 A2992 RMK A01
KHQI 230015Z AUTO 07006KT 9SM BKN023 BKN031 BKN075 27/24 A2992 RMK A01
KHQI 222355Z AUTO 32006KT 9SM SCT020 BKN030 BKN039 28/23 A2991 RMK A01
KHQI 222335Z AUTO 27013KT 10SM SCT019 BKN025 BKN036 28/23 A2991 RMK A01
KHQI 222315Z AUTO 08004KT 10SM SCT022 SCT027 BKN036 29/25 A2991 RMK A01
KHQI 222255Z AUTO 00000KT 10SM SCT022 SCT033 29/24 A2991 RMK A01
KHQI 222235Z AUTO 03004KT 10SM FEW024 29/24 A2992 RMK A01
KHQI 222215Z AUTO VRB03G11KT 10SM SCT023 SCT037 SCT044 28/24 A2992 RMK A01
KHQI 222155Z AUTO 34006G12KT 1 1/2SM HZ SCT023 SCT038 BKN047 28/24 A2992 RMK A01
KHQI 222135Z AUTO 00000G14KT 10SM FEW019 FEW025 FEW035 30/23 A2991 RMK A01
KHQI 222115Z AUTO VRB05KT 10SM FEW020 30/25 A2991 RMK A01
KHQI 222055Z AUTO 00000KT 10SM CLR 30/25 A2991 RMK A01
KHQI 222035Z AUTO 00000KT 10SM CLR 30/25 A2991 RMK A01
KHQI 222015Z AUTO 00000KT 10SM CLR 30/25 A2992 RMK A01
KHQI 221955Z AUTO 00000KT 10SM CLR 30/25 A2993 RMK A01
KHQI 221935Z AUTO VRB04KT 10SM CLR 31/25 A2994 RMK A01
KHQI 221915Z AUTO 20006KT 10SM CLR 32/25 A2994 RMK A01
KHQI 221855Z AUTO 20007KT 10SM CLR 32/25 A2995 RMK A01
KHQI 221835Z AUTO 21007KT 10SM CLR 32/25 A2996 RMK A01
KHQI 221815Z AUTO 20008KT 10SM CLR 32/24 A2997 RMK A01
KHQI 221755Z AUTO 20008KT 10SM CLR 32/25 A2997 RMK A01
KHQI 221735Z AUTO 19010KT 10SM CLR 31/25 A2997 RMK A01
KHQI 221715Z AUTO 19011KT 10SM CLR 30/25 A2997 RMK A01
KHQI 221655Z AUTO 19011KT 10SM CLR 30/25 A2998 RMK A01
KHQI 221635Z AUTO 19013KT 10SM CLR 30/25 A2998 RMK A01
KHQI 221615Z AUTO 18006KT 10SM CLR 30/25 A2998 RMK A01
KHQI 221555Z AUTO 18009G14KT 10SM FEW021 30/25 A2998 RMK A01
KHQI 221535Z AUTO 18008G14KT 10SM CLR 30/25 A2998 RMK A01
KHQI 221515Z AUTO 18008G14KT 10SM FEW019 FEW024 FEW029 30/25 A2997 RMK A01
KHQI 221455Z AUTO VRB05G13KT 10SM FEW017 FEW029 SCT040 29/26 A2996 RMK A01
KHQI 221435Z AUTO VRB06G15KT 10SM FEW017 FEW024 29/26 A2996 RMK A01
KHQI 221415Z AUTO 18010KT 6SM HZ FEW016 FEW024 29/26 A2997 RMK A01
KHQI 221355Z AUTO VRB05G18KT 1 1/4SM HZ SCT015 SCT023 29/25 A2997 RMK A01
KHQI 221335Z AUTO VRB04G10KT 10SM FEW017 FEW024 30/26 A2997 RMK A01
KHQI 221315Z AUTO 00000KT 9SM SCT016 SCT025 30/26 A2996 RMK A01
KHQI 221255Z AUTO VRB06G13KT 9SM SCT015 29/26 A2995 RMK A01
KHQI 221235Z AUTO VRB05G11KT 10SM FEW015 29/26 A2994 RMK A01
KHQI 221215Z AUTO VRB04G10KT 9SM FEW015 29/26 A2994 RMK A01
KHQI 221155Z AUTO 17007G13KT 050V190 9SM FEW016 29/26 A2993 RMK A01
KHQI 221135Z AUTO VRB03G10KT 10SM CLR 29/26 A2993 RMK A01
KHQI 221115Z AUTO 00000G12KT 9SM CLR 29/25 A2993 RMK A01
KHQI 221055Z AUTO VRB04G12KT 10SM CLR 29/25 A2993 RMK A01
KHQI 221035Z AUTO 18008KT 10SM CLR 29/25 A2992 RMK A01
KHQI 221015Z AUTO VRB06G13KT 10SM CLR 29/24 A2992 RMK A01
KHQI 220955Z AUTO VRB04G10KT 9SM FEW020 FEW031 29/25 A2992 RMK A01
KHQI 220935Z AUTO VRB05G13KT 9SM CLR 29/26 A2992 RMK A01
KHQI 220915Z AUTO VRB04G14KT 9SM FEW024 29/26 A2992 RMK A01
KHQI 220855Z AUTO VRB04G10KT 9SM FEW080 FEW085 29/26 A2993 RMK A01
KHQI 220835Z AUTO VRB04G19KT 9SM FEW016 FEW044 SCT075 29/24 A2993 RMK A01
KHQI 220815Z AUTO 16010G19KT 130V200 9SM FEW017 SCT027 SCT047 29/26 A2994 RMK A01
KHQI 220755Z AUTO VRB05G17KT 9SM FEW016 SCT025 BKN055 29/26 A2994 RMK A01
KHQI 220735Z AUTO VRB05G13KT 10SM SCT018 SCT032 BKN065 29/25 A2994 RMK A01
KHQI 220715Z AUTO 15012G19KT 10SM BKN017 BKN026 BKN034 29/26 A2994 RMK A01
KHQI 220655Z AUTO 15013G19KT 9SM SCT017 SCT027 BKN070 29/26 A2995 RMK A01
KHQI 220635Z AUTO 15012G19KT 10SM FEW015 FEW021 SCT031 29/26 A2995 RMK A01
KHQI 220615Z AUTO 15016KT 9SM FEW015 SCT022 BKN027 29/26 A2997 RMK A01
KHQI 220555Z AUTO 15014KT 9SM SCT016 BKN024 BKN030 29/26 A2997 RMK A01
KHQI 220535Z AUTO 14007G14KT 9SM SCT017 SCT029 SCT044 29/26 A2998 RMK A01
KHQI 220515Z AUTO 15013KT 9SM FEW016 29/26 A2998 RMK A01
KHQI 220455Z AUTO 15011KT 9SM FEW014 29/26 A2998 RMK A01
KHQI 220435Z AUTO 14008G14KT 9SM FEW015 29/26 A2999 RMK A01
KHQI 220415Z AUTO 14009G15KT 100V180 9SM CLR 29/26 A2999 RMK A01
KHQI 220355Z AUTO 13009G16KT 9SM FEW016 29/26 A2999 RMK A01
KHQI 220335Z AUTO 13009G15KT 9SM CLR 29/26 A2999 RMK A01
KHQI 220315Z AUTO 13009G17KT 9SM CLR 29/26 A2999 RMK A01
KHQI 220255Z AUTO 14009G15KT 10SM SCT070 29/26 A2999 RMK A01
KHQI 220235Z AUTO 15010KT 9SM BKN075 29/26 A2999 RMK A01
KHQI 220215Z AUTO 13007G14KT 9SM BKN070 29/25 A2998 RMK A01
KHQI 220155Z AUTO 14007G12KT 8SM SCT050 SCT060 OVC070 29/26 A2997 RMK A01
KHQI 220135Z AUTO VRB04KT 10SM BKN050 OVC060 29/26 A2997 RMK A01
KHQI 220115Z AUTO 00000KT 10SM SCT055 BKN065 29/25 A2996 RMK A01
KHQI 220055Z AUTO VRB03KT 10SM FEW055 29/25 A2995 RMK A01
KHQI 220035Z AUTO VRB04G10KT 10SM FEW037 FEW050 SCT070 29/25 A2994 RMK A01
KHQI 220015Z AUTO VRB05G10KT 8SM FEW019 SCT029 BKN037 29/25 A2994 RMK A01
KHQI 212355Z AUTO VRB07KT 10SM SCT020 BKN029 29/25 A2994 RMK A01
KHQI 212335Z AUTO VRB03G12KT 10SM FEW020 29/25 A2994 RMK A01
KHQI 212315Z AUTO VRB03G12KT 10SM CLR 29/21 A2993 RMK A01
KHQI 212255Z AUTO VRB06G13KT 10SM CLR 29/24 A2992 RMK A01
KHQI 212235Z AUTO 19014KT 9SM SCT022 BKN029 BKN036 28/25 A2993 RMK A01
KHQI 212215Z AUTO 20017G22KT 10SM SCT020 SCT027 BKN036 29/23 A2993 RMK A01
KHQI 212155Z AUTO 17009G19KT 080V210 9SM SCT020 SCT027 30/25 A2991 RMK A01
KHQI 212135Z AUTO 14014G20KT 9SM CLR 30/25 A2992 RMK A01
KHQI 212115Z AUTO 14013G19KT 10SM CLR 31/25 A2992 RMK A01
KHQI 212055Z AUTO 14013KT 9SM CLR 31/25 A2992 RMK A01
KHQI 212035Z AUTO 14010G17KT 100V160 10SM FEW021 31/25 A2992 RMK A01